Henderson Grove, Illinois
Current Conditions -  °F | °C
As of 9:15 PM on Tuesday 25 Nov 2014 (Local Time) from KGBG Reporting Station
Clear Clear  
Wind Chill: 20°   Ceiling: Unl
Heat Index: 20°   Visibility: 10mi
Dew Point: 19°   Wind: 3mph
Humidity: 95%   Direction: 110°ESE
Pressure: 30.15"   Gusts: NA
Location:  40.9508°N, 90.3832°W
Report Text: KGBG 260315Z AUTO 11003KT 10SM CLR M07/M07 A3015 RMK AO2 T10661073
Loading
Personal Weather Stations






























Interactive Weather Map New forecast layout! Learn more

10-Day Weather Forecast

Advertisements
Track Severe Weather on mobile